createdAt,value
2023-03-22T00:01:10.179Z,72.19
2023-03-22T00:03:36.980Z,72.63
2023-03-22T00:06:03.657Z,72.01
2023-03-22T00:08:30.309Z,72.35
2023-03-22T00:10:56.889Z,72.58
2023-03-22T00:13:33.381Z,72.78
2023-03-22T00:16:02.798Z,72.89
2023-03-22T00:18:29.460Z,72.81
2023-03-22T00:20:57.303Z,73.02
2023-03-22T00:23:24.442Z,72.76
2023-03-22T00:25:51.342Z,72.08
2023-03-22T00:28:18.304Z,73.25
2023-03-22T00:30:58.638Z,73.24
2023-03-22T00:33:27.306Z,72.17
2023-03-22T00:35:59.494Z,71.99
2023-03-22T00:38:41.255Z,72.34
2023-03-22T00:41:09.769Z,71.33
2023-03-22T00:43:37.225Z,70.59
2023-03-22T00:46:04.029Z,71.94
2023-03-22T00:48:31.454Z,71.78
2023-03-22T00:50:58.259Z,71.83
2023-03-22T00:53:24.933Z,72.31
2023-03-22T00:55:51.730Z,72.22
2023-03-22T00:58:18.682Z,73.08
2023-03-22T01:00:45.680Z,71.89
2023-03-22T01:03:14.247Z,71.75
2023-03-22T01:05:45.262Z,72.07
2023-03-22T01:08:14.894Z,71.41
2023-03-22T01:10:42.323Z,72.26
2023-03-22T01:13:09.876Z,71.86
2023-03-22T01:15:36.981Z,72.75
2023-03-22T01:18:04.102Z,72.47
2023-03-22T01:20:31.956Z,71.20
2023-03-22T01:22:58.901Z,71.04
2023-03-22T01:25:25.805Z,71.12
2023-03-22T01:27:55.581Z,70.56
2023-03-22T01:30:22.199Z,72.09
2023-03-22T01:32:49.264Z,71.34
2023-03-22T01:35:17.473Z,70.73
2023-03-22T01:37:44.123Z,70.90
2023-03-22T01:40:13.211Z,69.91
2023-03-22T01:42:40.264Z,70.45
2023-03-22T01:45:15.513Z,72.01
2023-03-22T01:47:47.696Z,71.94
2023-03-22T01:50:14.774Z,70.60
2023-03-22T01:52:44.094Z,71.70
2023-03-22T01:55:18.373Z,71.22
2023-03-22T01:57:46.985Z,71.35
2023-03-22T02:00:19.039Z,70.82
2023-03-22T02:03:06.229Z,71.48
2023-03-22T02:05:42.212Z,71.31
2023-03-22T02:08:09.000Z,71.13
2023-03-22T02:10:55.057Z,71.32
2023-03-22T02:13:34.906Z,70.62
2023-03-22T02:16:53.264Z,71.22
2023-03-22T02:19:19.832Z,70.92
2023-03-22T02:21:49.530Z,71.65
2023-03-22T02:24:29.775Z,72.56
2023-03-22T02:27:09.184Z,71.69
2023-03-22T02:29:45.286Z,71.46
2023-03-22T02:32:12.386Z,71.89
2023-03-22T02:34:57.891Z,72.25
2023-03-22T02:37:37.185Z,72.35
2023-03-22T02:40:11.562Z,71.27
2023-03-22T02:42:43.886Z,70.83
2023-03-22T02:45:13.617Z,72.24
2023-03-22T02:47:43.405Z,72.38
2023-03-22T02:50:14.069Z,71.71
2023-03-22T02:52:40.701Z,72.05
2023-03-22T02:55:09.985Z,72.88
2023-03-22T02:57:36.600Z,72.45
2023-03-22T03:00:08.785Z,71.85
2023-03-22T03:02:36.863Z,71.15
2023-03-22T03:05:03.918Z,71.73
2023-03-22T03:07:31.190Z,71.66
2023-03-22T03:09:58.409Z,71.53
2023-03-22T03:12:28.667Z,70.71
2023-03-22T03:14:56.999Z,72.27
2023-03-22T03:17:42.405Z,72.47
2023-03-22T03:20:30.847Z,71.58
2023-03-22T03:23:14.644Z,72.69
2023-03-22T03:25:48.959Z,72.06
2023-03-22T03:28:30.205Z,72.89
2023-03-22T03:31:03.865Z,73.02
2023-03-22T03:33:32.941Z,73.07
2023-03-22T03:36:06.804Z,72.93
2023-03-22T03:38:44.964Z,72.06
2023-03-22T03:41:14.490Z,72.01
2023-03-22T03:43:42.504Z,72.84
2023-03-22T03:46:09.591Z,72.41
2023-03-22T03:48:37.515Z,73.12
2023-03-22T03:51:04.532Z,73.79
2023-03-22T03:53:31.528Z,73.13
2023-03-22T03:56:00.355Z,72.69
2023-03-22T03:58:33.891Z,72.87
2023-03-22T04:01:03.086Z,72.43
2023-03-22T04:04:01.284Z,74.04
2023-03-22T04:06:27.965Z,72.43
2023-03-22T04:09:01.819Z,72.86
2023-03-22T04:11:32.413Z,72.48
2023-03-22T04:14:01.822Z,73.28
2023-03-22T04:16:32.255Z,72.93
2023-03-22T04:18:59.030Z,72.80
2023-03-22T04:21:25.646Z,73.46
2023-03-22T04:23:58.039Z,72.34
2023-03-22T04:26:29.439Z,71.43
2023-03-22T04:29:22.076Z,72.25
2023-03-22T04:31:53.564Z,73.92
2023-03-22T04:34:28.610Z,73.15
2023-03-22T04:37:06.210Z,74.32
2023-03-22T04:39:36.334Z,73.98
2023-03-22T04:42:21.735Z,74.23
2023-03-22T04:44:58.470Z,74.09
2023-03-22T04:47:25.325Z,73.45
2023-03-22T04:49:52.224Z,73.52
2023-03-22T04:52:18.988Z,73.95
2023-03-22T04:54:52.185Z,74.73
2023-03-22T04:57:18.893Z,74.91
2023-03-22T04:59:48.107Z,73.52
2023-03-22T05:02:14.725Z,73.38
2023-03-22T05:04:43.422Z,72.38
2023-03-22T05:07:23.953Z,72.93
2023-03-22T05:09:56.640Z,73.75
2023-03-22T05:12:23.936Z,72.90
2023-03-22T05:14:56.026Z,73.87
2023-03-22T05:17:29.823Z,73.34
2023-03-22T05:19:58.011Z,72.42
2023-03-22T05:22:25.192Z,72.52
2023-03-22T05:24:54.042Z,74.29
2023-03-22T05:27:31.373Z,73.81
2023-03-22T05:30:07.467Z,73.17
2023-03-22T05:32:47.544Z,75.95
2023-03-22T05:35:14.282Z,74.63
2023-03-22T05:38:10.821Z,73.82
2023-03-22T05:40:42.349Z,74.78
2023-03-22T05:43:08.979Z,74.51
2023-03-22T05:45:38.000Z,74.65
2023-03-22T05:48:13.158Z,74.91
2023-03-22T05:50:40.620Z,74.51
2023-03-22T05:53:07.719Z,74.80
2023-03-22T05:56:00.758Z,75.82
2023-03-22T05:58:31.315Z,74.74
2023-03-22T06:01:01.113Z,74.86
2023-03-22T06:03:46.277Z,74.99
2023-03-22T06:06:22.207Z,73.41
2023-03-22T06:09:10.681Z,74.51
2023-03-22T06:11:42.847Z,73.96
2023-03-22T06:14:09.517Z,75.22
2023-03-22T06:16:53.103Z,73.40
2023-03-22T06:19:22.479Z,74.03
2023-03-22T06:21:49.150Z,73.55
2023-03-22T06:24:17.511Z,73.98
2023-03-22T06:26:45.650Z,73.42
2023-03-22T06:29:13.912Z,73.45
2023-03-22T06:31:40.667Z,72.25
2023-03-22T06:34:08.333Z,72.86
2023-03-22T06:36:42.404Z,74.56
2023-03-22T06:39:15.569Z,74.07
2023-03-22T06:41:44.356Z,73.30
2023-03-22T06:44:11.445Z,72.79
2023-03-22T06:46:50.134Z,72.45
2023-03-22T06:49:34.031Z,72.56
2023-03-22T06:52:00.784Z,73.54
2023-03-22T06:54:28.011Z,73.33
2023-03-22T06:56:54.718Z,72.54
2023-03-22T06:59:24.365Z,72.64
2023-03-22T07:01:51.040Z,73.34
2023-03-22T07:04:17.817Z,72.48
2023-03-22T07:06:48.819Z,73.15
2023-03-22T07:09:15.902Z,73.86
2023-03-22T07:11:42.844Z,71.68
2023-03-22T07:14:09.622Z,70.51
2023-03-22T07:17:05.043Z,70.02
2023-03-22T07:19:34.853Z,70.75
2023-03-22T07:22:06.616Z,70.73
2023-03-22T07:24:33.795Z,71.40
2023-03-22T07:27:02.221Z,70.82
2023-03-22T07:29:29.441Z,71.40
2023-03-22T07:31:56.898Z,69.88
2023-03-22T07:34:42.602Z,68.96
2023-03-22T07:37:15.146Z,69.54
2023-03-22T07:39:42.100Z,68.84
2023-03-22T07:42:09.617Z,68.02
2023-03-22T07:44:56.662Z,68.01
2023-03-22T07:47:39.470Z,67.67
2023-03-22T07:50:19.561Z,67.61
2023-03-22T07:52:53.436Z,68.02
2023-03-22T07:55:20.093Z,68.46
2023-03-22T07:57:46.803Z,67.87
2023-03-22T08:00:13.949Z,67.40
2023-03-22T08:02:47.103Z,68.51
2023-03-22T08:05:30.932Z,67.14
2023-03-22T08:08:01.382Z,66.83
2023-03-22T08:10:28.217Z,66.42
2023-03-22T08:12:55.448Z,66.46
2023-03-22T08:15:25.499Z,65.05
2023-03-22T08:17:53.029Z,64.84
2023-03-22T08:20:47.259Z,64.46
2023-03-22T12:53:50.598Z,40.46
2023-03-22T13:00:23.306Z,43.07
2023-03-22T13:24:06.613Z,42.59
2023-03-22T13:27:26.691Z,40.89
2023-03-22T13:46:21.103Z,45.54
